Time;durP1;ratioP1;P1;durP2;ratioP2;P2;SDS_P1;SDS_P2;PMS_P1;PMS_P2;Temp;Humidity;BMP_temperature;BMP_pressure;BME280_temperature;BME280_humidity;BME280_pressure;Samples;Min_cycle;Max_cycle;Signal;HPM_P1;HPM_P2
2022/07/28 00:02:16;;;;;;;4.18;2.10;;;14.30;99.90;;;;;;5071808;28;20113;-62
2022/07/28 00:04:42;;;;;;;6.07;2.00;;;14.30;99.90;;;;;;5054157;28;20052;-62
2022/07/28 00:07:08;;;;;;;5.40;2.05;;;14.20;99.90;;;;;;5071311;28;20052;-62
2022/07/28 00:09:34;;;;;;;6.18;2.63;;;14.20;99.90;;;;;;5071515;28;20053;-62
2022/07/28 00:11:59;;;;;;;5.32;2.63;;;14.20;99.90;;;;;;5071172;28;20136;-61
2022/07/28 00:14:25;;;;;;;5.25;2.30;;;14.10;99.90;;;;;;5070721;28;20044;-60
2022/07/28 00:16:51;;;;;;;3.88;2.00;;;14.20;99.90;;;;;;5070002;28;20036;-62
2022/07/28 00:19:17;;;;;;;3.75;1.95;;;14.10;99.90;;;;;;5071712;28;20374;-62
2022/07/28 00:21:42;;;;;;;5.05;1.80;;;14.10;99.90;;;;;;5070382;28;20478;-62
2022/07/28 00:24:08;;;;;;;6.18;2.30;;;14.00;99.90;;;;;;5071109;28;20106;-63
2022/07/28 00:26:34;;;;;;;4.97;1.90;;;13.90;99.90;;;;;;5071427;28;20131;-62
2022/07/28 00:29:04;;;;;;;4.60;1.92;;;13.90;99.90;;;;;;5071164;28;20053;-62
2022/07/28 00:31:30;;;;;;;5.90;2.00;;;13.90;99.90;;;;;;5070701;28;20140;-62
2022/07/28 00:33:55;;;;;;;3.63;2.10;;;13.80;99.90;;;;;;5069858;28;20469;-62
2022/07/28 00:36:21;;;;;;;4.50;2.10;;;13.80;99.90;;;;;;5070389;28;20121;-61
2022/07/28 00:38:47;;;;;;;4.15;2.00;;;13.70;99.90;;;;;;5070227;28;20406;-61
2022/07/28 00:41:13;;;;;;;5.07;1.95;;;13.70;99.90;;;;;;5070090;28;20052;-62
2022/07/28 00:43:45;;;;;;;4.65;1.90;;;13.60;99.90;;;;;;5070180;28;20148;-62
2022/07/28 00:46:13;;;;;;;5.03;2.00;;;13.60;99.90;;;;;;5071047;28;20442;-62
2022/07/28 00:48:50;;;;;;;4.00;1.83;;;13.60;99.90;;;;;;5070202;28;20084;-62
2022/07/28 00:51:18;;;;;;;5.63;1.92;;;13.60;99.90;;;;;;5053461;28;20478;-61
2022/07/28 00:53:45;;;;;;;5.65;2.10;;;13.60;99.90;;;;;;5071427;28;20045;-62
2022/07/28 00:56:11;;;;;;;3.40;1.80;;;13.60;99.90;;;;;;5069783;28;20075;-60
2022/07/28 00:58:37;;;;;;;4.20;1.80;;;13.60;99.90;;;;;;5070556;28;20080;-60
2022/07/28 01:01:07;;;;;;;6.30;2.10;;;13.60;99.90;;;;;;5074625;28;20056;-60
2022/07/28 01:03:45;;;;;;;3.80;1.85;;;13.60;99.90;;;;;;5056741;28;20056;-61
2022/07/28 01:06:18;;;;;;;4.20;1.80;;;13.40;99.90;;;;;;5074606;28;20048;-60
2022/07/28 01:09:12;;;;;;;4.65;1.77;;;13.50;99.90;;;;;;5074780;28;20064;-60
2022/07/28 01:12:00;;;;;;;4.63;1.90;;;13.50;99.90;;;;;;5057266;28;20067;-59
2022/07/28 01:14:28;;;;;;;5.43;1.95;;;13.50;99.90;;;;;;5056622;28;20768;-60
2022/07/28 01:17:18;;;;;;;4.50;1.90;;;13.50;99.90;;;;;;5074370;28;20040;-63
2022/07/28 01:20:14;;;;;;;3.35;1.80;;;13.50;99.90;;;;;;5074613;28;20049;-60
2022/07/28 01:23:24;;;;;;;3.22;1.77;;;13.40;99.90;;;;;;5073553;28;20056;-60
2022/07/28 01:26:11;;;;;;;4.90;2.00;;;13.40;99.90;;;;;;5074406;28;20157;-60
2022/07/28 01:28:42;;;;;;;3.10;1.85;;;13.40;99.90;;;;;;5074472;28;20048;-60
2022/07/28 01:31:12;;;;;;;5.95;1.95;;;13.40;99.90;;;;;;5074061;28;20048;-60
2022/07/28 01:33:54;;;;;;;3.42;2.00;;;13.40;99.90;;;;;;5074490;28;20094;-60
2022/07/28 01:36:36;;;;;;;3.28;1.90;;;13.40;99.90;;;;;;5072461;28;20044;-59
2022/07/28 01:39:02;;;;;;;4.07;2.10;;;13.40;99.90;;;;;;5074116;28;20053;-59
2022/07/28 01:41:31;;;;;;;4.53;2.03;;;13.40;99.90;;;;;;5074235;28;20501;-60
2022/07/28 01:44:19;;;;;;;3.88;1.90;;;13.40;99.90;;;;;;5074315;28;20076;-62
2022/07/28 01:46:46;;;;;;;7.07;2.40;;;13.40;99.90;;;;;;5074025;28;20440;-61
2022/07/28 01:49:13;;;;;;;4.20;1.83;;;13.40;99.90;;;;;;5073817;28;20241;-61
2022/07/28 01:51:41;;;;;;;5.53;2.10;;;13.40;99.90;;;;;;5074175;28;20063;-61
2022/07/28 01:54:09;;;;;;;4.22;2.17;;;13.40;99.90;;;;;;5073752;28;20133;-60
2022/07/28 01:56:36;;;;;;;5.07;2.35;;;13.40;99.90;;;;;;5073825;28;20055;-59
2022/07/28 01:59:08;;;;;;;4.80;2.22;;;13.40;99.90;;;;;;5073469;28;20048;-62
2022/07/28 02:01:37;;;;;;;3.20;1.98;;;13.30;99.90;;;;;;5073894;28;20048;-59
2022/07/28 02:04:05;;;;;;;5.25;2.28;;;13.40;99.90;;;;;;5073500;28;20060;-60
2022/07/28 02:06:32;;;;;;;6.68;2.30;;;13.30;99.90;;;;;;5072641;28;20180;-60
2022/07/28 02:09:03;;;;;;;4.72;2.28;;;13.40;99.90;;;;;;5072181;28;20063;-61
2022/07/28 02:11:39;;;;;;;4.93;2.38;;;13.40;99.90;;;;;;5073294;28;20058;-59
2022/07/28 02:14:26;;;;;;;4.13;2.20;;;13.40;99.90;;;;;;5073312;28;20060;-59
2022/07/28 02:16:57;;;;;;;4.30;2.30;;;13.40;99.90;;;;;;5073623;28;20047;-59
2022/07/28 02:19:25;;;;;;;5.00;2.50;;;13.40;99.90;;;;;;5073164;28;20040;-60
2022/07/28 02:21:53;;;;;;;5.07;2.33;;;13.40;99.90;;;;;;5073480;28;20413;-60
2022/07/28 02:24:25;;;;;;;5.72;2.65;;;13.40;99.90;;;;;;5088808;28;20519;-62
2022/07/28 02:26:57;;;;;;;6.10;2.67;;;13.40;99.90;;;;;;5073460;28;20055;-59
2022/07/28 02:29:23;;;;;;;4.25;2.50;;;13.40;99.90;;;;;;5073253;28;20050;-60
2022/07/28 02:31:59;;;;;;;6.00;2.60;;;13.40;99.90;;;;;;5073345;28;20040;-59
2022/07/28 02:34:26;;;;;;;3.67;2.25;;;13.40;99.90;;;;;;5073020;28;20052;-59
2022/07/28 02:37:01;;;;;;;5.05;2.67;;;13.40;99.90;;;;;;5072042;28;20417;-60
2022/07/28 02:39:40;;;;;;;4.43;2.10;;;13.40;99.90;;;;;;5072705;28;20059;-59
2022/07/28 02:42:18;;;;;;;4.93;2.28;;;13.40;99.90;;;;;;5071424;28;20485;-62
2022/07/28 02:45:14;;;;;;;4.70;2.35;;;13.40;99.90;;;;;;5055514;28;20083;-60
2022/07/28 02:47:47;;;;;;;5.75;2.40;;;13.50;99.90;;;;;;5070346;28;20053;-60
2022/07/28 02:50:15;;;;;;;3.78;2.20;;;13.50;99.90;;;;;;5071481;28;20060;-59
2022/07/28 02:52:43;;;;;;;4.15;2.20;;;13.50;99.90;;;;;;5072985;28;20414;-60
2022/07/28 02:55:12;;;;;;;4.82;2.50;;;13.50;99.90;;;;;;5054829;28;20186;-62
2022/07/28 02:57:40;;;;;;;5.10;2.30;;;13.50;99.90;;;;;;5072871;28;20052;-59
2022/07/28 03:00:07;;;;;;;4.03;2.20;;;13.60;99.90;;;;;;5072632;28;20516;-59
2022/07/28 03:02:35;;;;;;;4.45;2.30;;;13.60;99.90;;;;;;5072347;28;20048;-60
2022/07/28 03:05:02;;;;;;;3.92;2.17;;;13.60;99.90;;;;;;5072464;28;20052;-59
2022/07/28 03:07:30;;;;;;;4.32;2.40;;;13.60;99.90;;;;;;5072322;28;20123;-59
2022/07/28 03:09:57;;;;;;;6.32;2.35;;;13.70;99.90;;;;;;5072524;28;20126;-59
2022/07/28 03:12:23;;;;;;;5.72;2.65;;;13.70;99.90;;;;;;5070725;28;20080;-59
2022/07/28 03:14:49;;;;;;;5.53;2.20;;;13.70;99.90;;;;;;5072524;28;20080;-60
2022/07/28 03:17:15;;;;;;;4.90;2.28;;;13.70;99.90;;;;;;5070774;28;20036;-60
2022/07/28 03:19:41;;;;;;;5.97;2.25;;;13.70;99.90;;;;;;5072451;28;20114;-61
2022/07/28 03:22:07;;;;;;;4.95;2.30;;;13.80;99.90;;;;;;5071557;28;20044;-60
2022/07/28 03:24:38;;;;;;;4.68;2.40;;;13.70;99.90;;;;;;5070807;28;20302;-60
2022/07/28 03:27:16;;;;;;;4.45;2.42;;;13.70;99.90;;;;;;5072311;28;20080;-60
2022/07/28 03:29:47;;;;;;;4.05;2.72;;;13.70;99.90;;;;;;5072288;28;20052;-59
2022/07/28 03:32:14;;;;;;;5.30;2.33;;;13.70;99.90;;;;;;5071802;28;20080;-63
2022/07/28 03:34:39;;;;;;;6.72;2.42;;;13.70;99.90;;;;;;5072177;28;20075;-60
2022/07/28 03:37:12;;;;;;;4.35;2.10;;;13.70;99.90;;;;;;5071986;28;20044;-59
2022/07/28 03:39:45;;;;;;;4.32;2.33;;;13.70;99.90;;;;;;5070552;28;20059;-60
2022/07/28 03:42:12;;;;;;;5.60;2.47;;;13.70;99.90;;;;;;5070869;28;20087;-60
2022/07/28 03:44:39;;;;;;;7.05;2.47;;;13.60;99.90;;;;;;5071677;28;20049;-59
2022/07/28 03:47:06;;;;;;;7.63;2.50;;;13.60;99.90;;;;;;5071898;28;20048;-59
2022/07/28 03:49:31;;;;;;;7.75;3.55;;;13.60;99.90;;;;;;5070374;28;20436;-59
2022/07/28 03:51:57;;;;;;;5.05;2.55;;;13.50;99.90;;;;;;5071455;28;20127;-61
2022/07/28 03:54:23;;;;;;;6.43;2.90;;;13.60;99.90;;;;;;5071161;28;20178;-59
2022/07/28 03:56:48;;;;;;;7.90;2.95;;;13.50;99.90;;;;;;5070625;28;20490;-59
2022/07/28 03:59:14;;;;;;;3.88;2.58;;;13.60;99.90;;;;;;5070956;28;20044;-59
2022/07/28 04:01:40;;;;;;;3.65;2.17;;;13.60;99.90;;;;;;5070256;28;20547;-60
2022/07/28 04:04:06;;;;;;;5.68;2.65;;;13.60;99.90;;;;;;5070686;28;20083;-60
2022/07/28 04:06:31;;;;;;;4.65;2.50;;;13.60;99.90;;;;;;5071480;28;20127;-58
2022/07/28 04:08:57;;;;;;;4.97;2.58;;;13.60;99.90;;;;;;5071136;28;20060;-59
2022/07/28 04:11:23;;;;;;;4.10;2.53;;;13.70;99.90;;;;;;5069873;28;20049;-59
2022/07/28 04:13:48;;;;;;;5.50;2.50;;;13.70;99.90;;;;;;5070575;28;20059;-60
2022/07/28 04:16:14;;;;;;;6.95;2.95;;;13.70;99.90;;;;;;5070702;28;20052;-60
2022/07/28 04:18:41;;;;;;;5.72;2.45;;;13.70;99.90;;;;;;5053390;28;20125;-65
2022/07/28 04:21:06;;;;;;;5.95;2.72;;;13.60;99.90;;;;;;5070400;28;20135;-59
2022/07/28 04:23:32;;;;;;;4.72;3.00;;;13.60;99.90;;;;;;5069987;28;20123;-59
2022/07/28 04:25:58;;;;;;;4.95;2.90;;;13.60;99.90;;;;;;5071608;28;20485;-60
2022/07/28 04:28:24;;;;;;;7.07;2.80;;;13.60;99.90;;;;;;5071053;28;20041;-60
2022/07/28 04:30:49;;;;;;;4.63;2.75;;;13.60;99.90;;;;;;5071633;28;20492;-61
2022/07/28 04:33:18;;;;;;;4.53;2.63;;;13.60;99.90;;;;;;5071928;28;20055;-62
2022/07/28 04:35:44;;;;;;;6.22;2.60;;;13.50;99.90;;;;;;5074101;28;20048;-61
2022/07/28 04:38:13;;;;;;;5.25;2.92;;;13.60;99.90;;;;;;5075450;28;20041;-61
2022/07/28 04:40:40;;;;;;;6.32;2.58;;;13.50;99.90;;;;;;5075165;28;20041;-62
2022/07/28 04:43:06;;;;;;;6.47;2.88;;;13.60;99.90;;;;;;5075215;28;20080;-61
2022/07/28 04:45:32;;;;;;;5.72;3.03;;;13.60;99.90;;;;;;5074850;28;20458;-61
2022/07/28 04:47:58;;;;;;;3.92;2.63;;;13.60;99.90;;;;;;5073970;28;20167;-60
2022/07/28 04:50:24;;;;;;;5.40;2.67;;;13.60;99.90;;;;;;5074842;28;20527;-63
2022/07/28 04:52:49;;;;;;;5.00;2.88;;;13.60;99.90;;;;;;5075021;28;20076;-61
2022/07/28 04:55:16;;;;;;;8.50;3.10;;;13.60;99.90;;;;;;5074195;28;20522;-61
2022/07/28 04:57:42;;;;;;;5.40;2.78;;;13.60;99.90;;;;;;5074718;28;20123;-60
2022/07/28 05:00:11;;;;;;;6.35;2.75;;;13.70;99.90;;;;;;5073976;28;20048;-60
2022/07/28 05:02:37;;;;;;;4.95;2.38;;;13.70;99.90;;;;;;5074357;28;20041;-59
2022/07/28 05:05:03;;;;;;;3.70;2.35;;;13.70;99.90;;;;;;5074827;28;20071;-60
2022/07/28 05:07:29;;;;;;;4.40;2.42;;;13.80;99.90;;;;;;5073150;28;20053;-61
2022/07/28 05:09:55;;;;;;;4.85;2.20;;;13.80;99.90;;;;;;5074642;28;20060;-59
2022/07/28 05:12:20;;;;;;;6.03;2.50;;;13.90;99.90;;;;;;5074697;28;20486;-59
2022/07/28 05:14:46;;;;;;;7.18;2.67;;;13.90;99.90;;;;;;5074399;28;20130;-59
2022/07/28 05:17:12;;;;;;;4.72;2.20;;;14.00;99.90;;;;;;5074536;28;20106;-59
2022/07/28 05:19:39;;;;;;;4.65;2.53;;;14.00;99.90;;;;;;5074203;28;20055;-60
2022/07/28 05:22:04;;;;;;;5.00;2.20;;;14.10;99.90;;;;;;5074651;28;20050;-60
2022/07/28 05:24:30;;;;;;;5.28;2.40;;;14.20;99.90;;;;;;5074241;28;20135;-62
2022/07/28 05:26:56;;;;;;;6.07;2.20;;;14.20;99.90;;;;;;5073078;28;20098;-59
2022/07/28 05:29:22;;;;;;;4.75;2.30;;;14.30;99.90;;;;;;5074411;28;20044;-59
2022/07/28 05:31:48;;;;;;;4.80;2.50;;;14.40;99.90;;;;;;5074156;28;20083;-59
2022/07/28 05:34:14;;;;;;;4.32;2.38;;;14.50;99.90;;;;;;5074585;28;20482;-61
2022/07/28 05:36:39;;;;;;;7.45;2.40;;;14.60;99.90;;;;;;5072555;28;20051;-61
2022/07/28 05:39:05;;;;;;;5.78;2.35;;;14.60;99.90;;;;;;5073361;28;20150;-61
2022/07/28 05:41:32;;;;;;;3.30;2.05;;;14.70;99.90;;;;;;5039875;28;20041;-64
2022/07/28 05:44:00;;;;;;;4.63;2.03;;;14.70;99.90;;;;;;5073231;28;20060;-62
2022/07/28 05:46:27;;;;;;;6.05;2.40;;;14.90;99.90;;;;;;5039334;28;20145;-64
2022/07/28 05:48:53;;;;;;;6.43;2.50;;;14.90;99.90;;;;;;5073964;28;20062;-63
2022/07/28 05:51:19;;;;;;;4.70;2.08;;;15.00;99.90;;;;;;5056454;28;20052;-61
2022/07/28 05:53:44;;;;;;;7.40;2.08;;;15.00;99.90;;;;;;5073571;28;20052;-58
2022/07/28 05:56:10;;;;;;;7.38;2.33;;;15.10;99.90;;;;;;5073056;28;20461;-59
2022/07/28 05:58:36;;;;;;;5.72;2.35;;;15.20;99.90;;;;;;5073375;28;20110;-63
2022/07/28 06:01:02;;;;;;;7.88;3.30;;;15.20;99.90;;;;;;5073650;28;20044;-60
2022/07/28 06:03:31;;;;;;;4.07;2.40;;;15.20;99.90;;;;;;5073817;28;20049;-59
2022/07/28 06:05:57;;;;;;;7.53;2.60;;;15.30;99.90;;;;;;5055594;28;20045;-59
2022/07/28 06:08:25;;;;;;;5.40;2.80;;;15.40;99.90;;;;;;5073428;28;20094;-60
2022/07/28 06:13:47;;;;;;;9.05;4.78;;;15.50;99.90;;;;;;5068341;28;20053;-61
2022/07/28 06:16:13;;;;;;;10.05;5.68;;;15.60;99.90;;;;;;5072291;28;20417;-59
2022/07/28 06:18:38;;;;;;;9.43;5.75;;;15.60;99.90;;;;;;5072854;28;20036;-60
2022/07/28 06:21:04;;;;;;;9.15;6.90;;;15.60;99.90;;;;;;5072412;28;20147;-60
2022/07/28 06:23:30;;;;;;;6.88;5.10;;;15.70;99.90;;;;;;5072352;28;20063;-60
2022/07/28 06:25:55;;;;;;;8.95;5.75;;;15.70;99.90;;;;;;5073109;28;20390;-60
2022/07/28 06:28:21;;;;;;;8.50;5.20;;;15.70;99.90;;;;;;5072951;28;20158;-60
2022/07/28 06:30:47;;;;;;;7.70;6.53;;;15.80;99.90;;;;;;5072773;28;20044;-60
2022/07/28 06:33:15;;;;;;;11.82;6.85;;;15.80;99.90;;;;;;5072117;28;20496;-60
2022/07/28 06:35:41;;;;;;;9.50;6.25;;;15.80;99.90;;;;;;5072687;28;20486;-60
2022/07/28 06:38:07;;;;;;;8.38;6.43;;;15.80;99.90;;;;;;5073227;28;20044;-60
2022/07/28 06:40:33;;;;;;;8.57;5.75;;;15.80;99.90;;;;;;5072975;28;20482;-60
2022/07/28 06:42:59;;;;;;;9.07;6.57;;;15.70;99.90;;;;;;5055223;28;20048;-60
2022/07/28 06:45:24;;;;;;;10.57;4.95;;;15.80;99.90;;;;;;5073118;28;20045;-60
2022/07/28 06:47:51;;;;;;;10.15;5.35;;;15.70;99.90;;;;;;5072635;28;20052;-61
2022/07/28 06:50:17;;;;;;;6.65;4.70;;;15.80;99.90;;;;;;5054759;28;20524;-60
2022/07/28 06:52:42;;;;;;;9.18;4.45;;;15.80;99.90;;;;;;5072428;28;20128;-61
2022/07/28 06:55:08;;;;;;;8.27;5.57;;;15.80;99.90;;;;;;5072492;28;20044;-59
2022/07/28 06:57:34;;;;;;;8.50;4.47;;;15.80;99.90;;;;;;5072626;28;20040;-59
2022/07/28 07:00:05;;;;;;;6.80;3.63;;;15.70;99.90;;;;;;5072143;28;20584;-58
2022/07/28 07:02:30;;;;;;;4.93;3.05;;;15.70;99.90;;;;;;5071524;28;20466;-60
2022/07/28 07:04:56;;;;;;;4.65;2.58;;;15.50;99.90;;;;;;5072333;28;20037;-60
2022/07/28 07:07:22;;;;;;;5.40;2.60;;;15.50;99.90;;;;;;5072774;28;20482;-59
2022/07/28 07:09:48;;;;;;;6.38;3.17;;;15.30;99.90;;;;;;5072162;28;20057;-59
2022/07/28 07:12:14;;;;;;;7.03;3.00;;;15.20;99.90;;;;;;5072497;28;20406;-60
2022/07/28 07:14:39;;;;;;;4.32;2.50;;;15.10;99.90;;;;;;5072165;28;20044;-60
2022/07/28 07:17:05;;;;;;;5.30;2.70;;;15.00;99.90;;;;;;5071914;28;20036;-60
2022/07/28 07:19:31;;;;;;;6.22;2.80;;;15.00;99.90;;;;;;5072244;28;20206;-60
2022/07/28 07:21:56;;;;;;;4.53;2.80;;;15.00;99.90;;;;;;5070895;28;20398;-59
2022/07/28 07:24:22;;;;;;;6.68;2.83;;;15.00;99.90;;;;;;5072157;28;20048;-58
2022/07/28 07:26:48;;;;;;;6.32;2.60;;;15.00;99.90;;;;;;5072012;28;20500;-60
2022/07/28 07:29:14;;;;;;;6.85;2.80;;;15.00;99.90;;;;;;5072340;28;20051;-59
2022/07/28 07:31:39;;;;;;;8.38;2.60;;;15.00;99.90;;;;;;5071141;28;20055;-59
2022/07/28 07:34:05;;;;;;;5.53;2.78;;;15.00;99.90;;;;;;5054112;28;20129;-59
2022/07/28 07:36:32;;;;;;;5.68;2.45;;;15.00;99.90;;;;;;5072223;28;20417;-59
2022/07/28 07:38:58;;;;;;;5.22;2.70;;;15.10;99.90;;;;;;5070679;28;20037;-59
2022/07/28 07:41:24;;;;;;;6.03;2.22;;;15.00;99.90;;;;;;5072247;28;20481;-59
2022/07/28 07:43:49;;;;;;;5.15;2.50;;;15.10;99.90;;;;;;5070532;28;20371;-61
2022/07/28 07:46:16;;;;;;;9.25;2.58;;;15.10;99.90;;;;;;5071747;28;20481;-59
2022/07/28 07:48:42;;;;;;;6.22;2.33;;;15.10;99.90;;;;;;5071056;28;20060;-60
2022/07/28 07:51:08;;;;;;;8.15;2.10;;;15.20;99.90;;;;;;5070450;28;20045;-59
2022/07/28 07:53:34;;;;;;;8.55;2.03;;;15.20;99.90;;;;;;5070579;28;20059;-60
2022/07/28 07:56:00;;;;;;;8.70;2.22;;;15.30;99.90;;;;;;5070612;28;20044;-59
2022/07/28 07:58:26;;;;;;;3.92;1.80;;;15.40;99.90;;;;;;5071890;28;20048;-59
2022/07/28 08:00:52;;;;;;;6.25;1.85;;;15.40;99.90;;;;;;5071424;28;20052;-62
2022/07/28 08:03:18;;;;;;;5.47;1.73;;;15.40;99.90;;;;;;5070745;28;20036;-59
2022/07/28 08:05:44;;;;;;;4.57;1.83;;;15.50;99.90;;;;;;5071531;28;20047;-59
2022/07/28 08:08:10;;;;;;;2.90;1.60;;;15.50;99.90;;;;;;5053135;28;20060;-60
2022/07/28 08:10:37;;;;;;;7.35;2.08;;;15.50;99.90;;;;;;5071510;28;20114;-60
2022/07/28 08:13:05;;;;;;;5.70;1.60;;;15.60;99.90;;;;;;5070231;28;20092;-60
2022/07/28 08:15:31;;;;;;;5.35;1.67;;;15.60;99.90;;;;;;5071625;28;20052;-60
2022/07/28 08:17:57;;;;;;;5.28;1.90;;;15.70;99.90;;;;;;5071280;28;20127;-59
2022/07/28 08:20:22;;;;;;;7.68;2.28;;;15.80;99.90;;;;;;5068194;28;20148;-60
2022/07/28 08:22:50;;;;;;;5.25;1.90;;;15.80;99.90;;;;;;5071498;28;20047;-60
2022/07/28 08:25:16;;;;;;;3.40;1.80;;;15.90;99.90;;;;;;5070922;28;20044;-60
2022/07/28 08:27:42;;;;;;;4.47;1.60;;;15.90;99.90;;;;;;5070644;28;20044;-59
2022/07/28 08:30:09;;;;;;;4.22;1.73;;;16.00;99.90;;;;;;5053437;28;20062;-60
2022/07/28 08:32:34;;;;;;;4.05;1.65;;;16.10;99.90;;;;;;5071953;28;20121;-59
2022/07/28 08:35:00;;;;;;;4.55;1.60;;;16.10;99.90;;;;;;5069973;28;20130;-60
2022/07/28 08:37:26;;;;;;;3.28;1.40;;;16.20;99.90;;;;;;5053497;28;20098;-60
2022/07/28 08:39:51;;;;;;;3.25;1.30;;;16.30;99.90;;;;;;5053709;28;20052;-59
2022/07/28 08:42:33;;;;;;;4.72;1.20;;;16.40;99.90;;;;;;5036765;28;20044;-60
2022/07/28 08:45:06;;;;;;;4.05;1.50;;;16.60;99.90;;;;;;5069250;28;20059;-60
2022/07/28 08:47:33;;;;;;;4.25;1.27;;;16.70;99.90;;;;;;5071520;28;20045;-60
2022/07/28 08:49:59;;;;;;;5.03;1.70;;;16.90;99.90;;;;;;5071026;28;20044;-60
2022/07/28 08:52:32;;;;;;;5.70;1.73;;;17.10;99.90;;;;;;5070435;28;20494;-60
2022/07/28 08:55:00;;;;;;;4.65;1.73;;;17.30;99.90;;;;;;5070594;28;20044;-63
2022/07/28 08:57:41;;;;;;;3.55;1.20;;;17.40;99.90;;;;;;5069895;28;20048;-61
2022/07/28 09:00:09;;;;;;;2.67;1.10;;;17.60;99.90;;;;;;5036657;28;20041;-61
2022/07/28 09:02:41;;;;;;;5.30;1.63;;;17.80;99.90;;;;;;5070213;28;20133;-61
2022/07/28 09:05:08;;;;;;;2.65;1.33;;;18.00;99.90;;;;;;5071026;28;20102;-61
2022/07/28 09:07:37;;;;;;;4.45;1.75;;;18.30;99.90;;;;;;5071245;28;20056;-61
2022/07/28 09:10:08;;;;;;;4.57;1.40;;;18.60;99.90;;;;;;5069371;28;20057;-60
2022/07/28 09:12:38;;;;;;;3.33;1.75;;;18.90;99.90;;;;;;5071288;28;20079;-61
2022/07/28 09:15:06;;;;;;;4.55;1.83;;;19.20;99.90;;;;;;5070711;28;20131;-61
2022/07/28 09:17:33;;;;;;;3.08;1.23;;;19.70;99.90;;;;;;5070950;28;20109;-61
2022/07/28 09:19:59;;;;;;;1.88;1.17;;;20.50;99.90;;;;;;5071092;28;20055;-61
2022/07/28 09:22:25;;;;;;;3.97;1.20;;;21.30;99.90;;;;;;5074076;28;20048;-60
2022/07/28 09:24:52;;;;;;;3.83;1.20;;;22.00;98.30;;;;;;5056743;28;20098;-60
2022/07/28 09:27:18;;;;;;;4.70;1.33;;;22.20;96.80;;;;;;5073950;28;20136;-61
2022/07/28 09:29:46;;;;;;;3.53;1.25;;;22.50;95.90;;;;;;5073166;28;20109;-61
2022/07/28 09:32:13;;;;;;;5.03;1.20;;;22.80;94.40;;;;;;5072532;28;20088;-64
2022/07/28 09:34:44;;;;;;;2.13;1.00;;;23.20;95.30;;;;;;5073139;28;20044;-61
2022/07/28 09:37:26;;;;;;;3.08;1.40;;;23.70;93.50;;;;;;5074146;28;20043;-61
2022/07/28 09:39:57;;;;;;;2.92;1.27;;;24.20;95.40;;;;;;5071949;28;20052;-61
2022/07/28 09:42:23;;;;;;;2.83;1.20;;;24.20;92.30;;;;;;5072012;28;20056;-61
2022/07/28 09:45:03;;;;;;;3.00;1.40;;;24.40;92.60;;;;;;5074335;28;20063;-59
2022/07/28 09:47:31;;;;;;;3.15;1.17;;;24.50;93.20;;;;;;5072460;28;20048;-60
2022/07/28 09:49:58;;;;;;;3.47;1.27;;;24.50;93.20;;;;;;5071502;28;20080;-60
2022/07/28 09:52:35;;;;;;;3.15;1.20;;;24.00;91.90;;;;;;5071453;28;20045;-59
2022/07/28 09:55:08;;;;;;;4.72;1.30;;;23.40;92.00;;;;;;5070461;28;20048;-62
2022/07/28 09:57:36;;;;;;;3.03;1.30;;;23.30;92.70;;;;;;5072872;28;20036;-60
2022/07/28 10:00:05;;;;;;;1.58;0.90;;;23.00;92.40;;;;;;5072946;28;20052;-59
2022/07/28 10:02:31;;;;;;;1.58;0.60;;;22.70;91.80;;;;;;5073507;28;20044;-60
2022/07/28 10:05:01;;;;;;;4.68;1.02;;;22.20;92.20;;;;;;5073865;28;20063;-60
2022/07/28 10:07:28;;;;;;;2.25;1.13;;;21.80;92.60;;;;;;5073269;28;20059;-59
2022/07/28 10:10:07;;;;;;;2.10;1.10;;;21.60;92.40;;;;;;5072034;28;20056;-60
2022/07/28 10:12:37;;;;;;;1.13;0.90;;;21.50;92.50;;;;;;5073246;28;20049;-58
2022/07/28 10:17:57;;;;;;;2.77;1.13;;;21.50;92.50;;;;;;5073240;28;20409;-59
2022/07/28 10:20:23;;;;;;;4.05;1.10;;;21.60;92.80;;;;;;5073150;28;20366;-60
2022/07/28 10:22:54;;;;;;;1.50;0.90;;;21.70;92.40;;;;;;5073002;28;20070;-59
2022/07/28 10:25:21;;;;;;;2.35;0.95;;;21.70;92.70;;;;;;5067761;28;20134;-59
2022/07/28 10:27:48;;;;;;;3.35;1.10;;;21.70;92.40;;;;;;5050990;28;20052;-62
2022/07/28 10:30:14;;;;;;;2.72;1.05;;;21.90;92.10;;;;;;5069483;28;20102;-63
2022/07/28 10:32:42;;;;;;;2.28;0.90;;;22.00;91.30;;;;;;5072563;28;20080;-60
2022/07/28 10:35:11;;;;;;;2.10;0.98;;;21.80;91.20;;;;;;5072913;28;20040;-60
2022/07/28 10:38:00;;;;;;;1.67;0.95;;;21.80;92.10;;;;;;5071294;28;20040;-61
2022/07/28 10:40:30;;;;;;;2.00;0.93;;;21.80;91.70;;;;;;5062892;28;20614;-61
2022/07/28 10:42:57;;;;;;;4.15;1.20;;;21.80;91.00;;;;;;5072437;28;20505;-61
2022/07/28 10:45:24;;;;;;;1.92;0.90;;;21.90;91.60;;;;;;5070999;28;20045;-62
2022/07/28 10:47:50;;;;;;;3.95;1.20;;;21.70;91.40;;;;;;5069990;28;20040;-63
2022/07/28 10:50:17;;;;;;;3.13;0.90;;;21.70;91.40;;;;;;5070850;28;20055;-63
2022/07/28 10:52:44;;;;;;;2.13;0.95;;;21.50;91.70;;;;;;5072654;28;20102;-61
2022/07/28 10:55:19;;;;;;;2.90;1.10;;;21.20;91.90;;;;;;5054552;28;20052;-60
2022/07/28 10:58:19;;;;;;;2.65;1.10;;;21.00;92.30;;;;;;5068208;28;20494;-60
2022/07/28 11:00:52;;;;;;;5.18;1.50;;;21.20;92.80;;;;;;5071861;28;20048;-60
2022/07/28 11:03:38;;;;;;;2.50;1.17;;;21.10;92.90;;;;;;5038090;28;20052;-62
2022/07/28 11:06:22;;;;;;;2.30;1.00;;;21.10;93.00;;;;;;5072388;28;20088;-58
2022/07/28 11:08:48;;;;;;;2.25;1.10;;;21.00;92.70;;;;;;5071179;28;20056;-59
2022/07/28 11:11:14;;;;;;;2.65;1.20;;;20.80;93.00;;;;;;5072602;28;20052;-59
2022/07/28 11:13:40;;;;;;;3.40;1.13;;;20.70;92.90;;;;;;5070987;28;20147;-59
2022/07/28 11:16:14;;;;;;;2.60;0.98;;;20.70;93.10;;;;;;5072179;28;20502;-60
2022/07/28 11:19:06;;;;;;;2.67;1.10;;;20.50;92.90;;;;;;5071738;28;20044;-60
2022/07/28 11:21:33;;;;;;;3.40;1.15;;;20.40;93.00;;;;;;5071797;28;20087;-62
2022/07/28 11:23:59;;;;;;;4.28;1.20;;;20.30;93.40;;;;;;5071788;28;20520;-60
2022/07/28 11:26:29;;;;;;;6.85;1.48;;;20.20;93.70;;;;;;5071523;28;20044;-61
2022/07/28 11:29:09;;;;;;;2.88;1.17;;;20.20;94.00;;;;;;5071886;28;20084;-61
2022/07/28 11:31:47;;;;;;;2.00;1.10;;;20.20;93.90;;;;;;5070627;28;20049;-61
2022/07/28 11:34:16;;;;;;;1.55;0.95;;;20.10;93.50;;;;;;5072049;28;20052;-60
2022/07/28 11:36:57;;;;;;;2.28;0.98;;;20.10;93.80;;;;;;5071502;28;20048;-60
2022/07/28 11:39:28;;;;;;;2.95;1.10;;;20.20;93.70;;;;;;5071888;28;20110;-62
2022/07/28 11:41:54;;;;;;;2.03;0.85;;;20.10;93.30;;;;;;5071142;28;20048;-59
2022/07/28 11:44:28;;;;;;;2.30;1.10;;;20.00;93.40;;;;;;5070778;28;20052;-59
2022/07/28 11:47:16;;;;;;;2.40;1.15;;;19.80;93.70;;;;;;5070964;28;20109;-60
2022/07/28 11:49:43;;;;;;;3.83;1.15;;;19.80;94.00;;;;;;5071509;28;20091;-60
2022/07/28 11:52:12;;;;;;;3.38;1.20;;;19.80;93.90;;;;;;5071413;28;20041;-60
2022/07/28 11:54:39;;;;;;;3.67;1.15;;;19.90;93.40;;;;;;5070716;28;20040;-61
2022/07/28 11:57:10;;;;;;;3.00;0.95;;;20.00;93.80;;;;;;5070441;28;20127;-60
2022/07/28 11:59:58;;;;;;;1.85;1.05;;;20.00;93.60;;;;;;5071450;28;20155;-61
2022/07/28 12:02:27;;;;;;;3.80;1.10;;;20.20;93.50;;;;;;5071836;28;20048;-63
2022/07/28 12:04:59;;;;;;;2.85;1.13;;;20.20;92.60;;;;;;5071886;28;20040;-61
2022/07/28 12:07:35;;;;;;;3.17;1.20;;;20.20;92.50;;;;;;5071744;28;20044;-64
2022/07/28 12:10:21;;;;;;;6.72;1.30;;;20.20;93.00;;;;;;5071342;28;20106;-60
2022/07/28 12:12:54;;;;;;;1.58;0.98;;;20.30;92.30;;;;;;5071501;28;20052;-60
2022/07/28 12:15:21;;;;;;;7.60;1.27;;;20.40;91.50;;;;;;5071927;28;20123;-60
2022/07/28 12:17:48;;;;;;;2.35;1.13;;;20.40;91.80;;;;;;5053356;28;20185;-60
2022/07/28 12:20:16;;;;;;;3.58;1.20;;;20.50;92.10;;;;;;5071513;28;20060;-60
2022/07/28 12:22:56;;;;;;;2.78;1.13;;;20.60;92.50;;;;;;5071247;28;20063;-59
2022/07/28 12:25:22;;;;;;;7.32;1.48;;;20.70;92.20;;;;;;5071746;28;20044;-60
2022/07/28 12:27:48;;;;;;;9.98;1.77;;;20.80;92.50;;;;;;5071326;28;20642;-60
2022/07/28 12:30:31;;;;;;;8.10;1.65;;;20.80;92.10;;;;;;5070235;28;20049;-60
2022/07/28 12:32:57;;;;;;;7.80;1.50;;;20.70;91.90;;;;;;5070422;28;20044;-60
2022/07/28 12:35:23;;;;;;;4.80;1.20;;;20.60;92.30;;;;;;5071717;28;20049;-60
2022/07/28 12:37:50;;;;;;;3.00;1.13;;;20.70;92.20;;;;;;5071019;28;20197;-60
2022/07/28 12:40:17;;;;;;;3.47;1.40;;;20.80;92.30;;;;;;5071404;28;20055;-60
2022/07/28 12:42:44;;;;;;;1.58;0.98;;;20.80;92.20;;;;;;5071168;28;20197;-61
2022/07/28 12:45:11;;;;;;;2.03;1.00;;;20.80;92.60;;;;;;5070388;28;20131;-60
2022/07/28 12:47:37;;;;;;;3.80;1.02;;;20.80;92.50;;;;;;5086913;28;20390;-60
2022/07/28 12:50:14;;;;;;;2.03;1.02;;;20.90;92.50;;;;;;5071100;28;20040;-60
2022/07/28 12:53:00;;;;;;;2.13;1.02;;;21.00;92.90;;;;;;5070015;28;20041;-60
2022/07/28 12:55:26;;;;;;;4.28;1.00;;;21.10;92.50;;;;;;5073331;28;20059;-60
2022/07/28 12:57:52;;;;;;;4.00;1.35;;;21.10;92.10;;;;;;5074682;28;20110;-60
2022/07/28 13:00:30;;;;;;;2.20;1.02;;;21.10;91.40;;;;;;5075089;28;20040;-61
2022/07/28 13:02:57;;;;;;;2.15;1.10;;;21.20;91.60;;;;;;5074692;28;20146;-61